sensor_id;sensor_type;location;lat;lon;timestamp;pressure;altitude;pressure_sealevel;temperature;humidity
55679;BME280;41573;51.446;-2.018;2022-11-27T00:01:31;100671.50;;;10.99;100.00
55679;BME280;41573;51.446;-2.018;2022-11-27T00:03:57;100673.03;;;11.03;100.00
55679;BME280;41573;51.446;-2.018;2022-11-27T00:06:25;100676.44;;;11.06;100.00
55679;BME280;41573;51.446;-2.018;2022-11-27T00:08:50;100682.75;;;11.04;100.00
55679;BME280;41573;51.446;-2.018;2022-11-27T00:11:19;100684.44;;;11.06;100.00
55679;BME280;41573;51.446;-2.018;2022-11-27T00:13:46;100699.41;;;11.08;100.00
55679;BME280;41573;51.446;-2.018;2022-11-27T00:16:13;100709.13;;;11.09;100.00
55679;BME280;41573;51.446;-2.018;2022-11-27T00:18:39;100714.25;;;11.12;100.00
55679;BME280;41573;51.446;-2.018;2022-11-27T00:21:07;100717.88;;;11.11;100.00
55679;BME280;41573;51.446;-2.018;2022-11-27T00:23:34;100728.53;;;11.11;100.00
55679;BME280;41573;51.446;-2.018;2022-11-27T00:25:59;100731.97;;;11.13;100.00
55679;BME280;41573;51.446;-2.018;2022-11-27T00:28:25;100732.81;;;11.14;100.00
55679;BME280;41573;51.446;-2.018;2022-11-27T00:30:51;100742.44;;;11.16;100.00
55679;BME280;41573;51.446;-2.018;2022-11-27T00:33:16;100736.19;;;11.17;100.00
55679;BME280;41573;51.446;-2.018;2022-11-27T00:35:41;100744.91;;;11.19;100.00
55679;BME280;41573;51.446;-2.018;2022-11-27T00:38:08;100737.63;;;11.23;100.00
55679;BME280;41573;51.446;-2.018;2022-11-27T00:40:33;100751.41;;;11.30;100.00
55679;BME280;41573;51.446;-2.018;2022-11-27T00:42:59;100749.22;;;11.22;100.00
55679;BME280;41573;51.446;-2.018;2022-11-27T00:45:25;100746.38;;;11.25;100.00
55679;BME280;41573;51.446;-2.018;2022-11-27T00:47:51;100741.72;;;11.29;100.00
55679;BME280;41573;51.446;-2.018;2022-11-27T00:50:16;100743.69;;;11.25;100.00
55679;BME280;41573;51.446;-2.018;2022-11-27T00:52:42;100741.88;;;11.26;100.00
55679;BME280;41573;51.446;-2.018;2022-11-27T00:55:07;100754.94;;;11.30;100.00
55679;BME280;41573;51.446;-2.018;2022-11-27T00:57:33;100750.66;;;11.28;100.00
55679;BME280;41573;51.446;-2.018;2022-11-27T00:59:58;100771.78;;;11.31;100.00
55679;BME280;41573;51.446;-2.018;2022-11-27T01:02:24;100775.50;;;11.28;100.00
55679;BME280;41573;51.446;-2.018;2022-11-27T01:04:49;100768.28;;;11.30;100.00
55679;BME280;41573;51.446;-2.018;2022-11-27T01:07:14;100776.94;;;11.34;100.00
55679;BME280;41573;51.446;-2.018;2022-11-27T01:09:40;100785.13;;;11.31;100.00
55679;BME280;41573;51.446;-2.018;2022-11-27T01:12:06;100780.56;;;11.33;100.00
55679;BME280;41573;51.446;-2.018;2022-11-27T01:14:31;100778.66;;;11.35;100.00
55679;BME280;41573;51.446;-2.018;2022-11-27T01:16:58;100789.22;;;11.36;100.00
55679;BME280;41573;51.446;-2.018;2022-11-27T01:19:23;100790.88;;;11.39;100.00
55679;BME280;41573;51.446;-2.018;2022-11-27T01:21:49;100773.31;;;11.35;100.00
55679;BME280;41573;51.446;-2.018;2022-11-27T01:24:14;100776.94;;;11.34;100.00
55679;BME280;41573;51.446;-2.018;2022-11-27T01:26:41;100776.94;;;11.34;100.00
55679;BME280;41573;51.446;-2.018;2022-11-27T01:29:07;100790.28;;;11.34;100.00
55679;BME280;41573;51.446;-2.018;2022-11-27T01:31:33;100783.31;;;11.31;100.00
55679;BME280;41573;51.446;-2.018;2022-11-27T01:34:02;100787.50;;;11.35;100.00
55679;BME280;41573;51.446;-2.018;2022-11-27T01:36:28;100786.47;;;11.38;100.00
55679;BME280;41573;51.446;-2.018;2022-11-27T01:38:53;100789.81;;;11.42;100.00
55679;BME280;41573;51.446;-2.018;2022-11-27T01:41:21;100779.41;;;11.37;100.00
55679;BME280;41573;51.446;-2.018;2022-11-27T01:43:52;100797.53;;;11.46;100.00
55679;BME280;41573;51.446;-2.018;2022-11-27T01:46:55;100802.19;;;11.43;100.00
55679;BME280;41573;51.446;-2.018;2022-11-27T01:51:53;100796.59;;;11.47;100.00
55679;BME280;41573;51.446;-2.018;2022-11-27T01:54:23;100792.22;;;11.46;100.00
55679;BME280;41573;51.446;-2.018;2022-11-27T01:56:53;100781.72;;;11.43;100.00
55679;BME280;41573;51.446;-2.018;2022-11-27T01:59:21;100800.31;;;11.45;100.00
55679;BME280;41573;51.446;-2.018;2022-11-27T02:01:46;100798.38;;;11.47;100.00
55679;BME280;41573;51.446;-2.018;2022-11-27T02:04:12;100797.72;;;11.43;100.00
55679;BME280;41573;51.446;-2.018;2022-11-27T02:06:37;100799.44;;;11.44;100.00
55679;BME280;41573;51.446;-2.018;2022-11-27T02:09:03;100801.34;;;11.42;100.00
55679;BME280;41573;51.446;-2.018;2022-11-27T02:22:23;100801.44;;;11.55;100.00
55679;BME280;41573;51.446;-2.018;2022-11-27T02:25:30;100794.22;;;11.57;100.00
55679;BME280;41573;51.446;-2.018;2022-11-27T02:28:25;100798.88;;;11.53;100.00
55679;BME280;41573;51.446;-2.018;2022-11-27T02:31:20;100798.78;;;11.55;100.00
55679;BME280;41573;51.446;-2.018;2022-11-27T02:33:45;100798.69;;;11.56;100.00
55679;BME280;41573;51.446;-2.018;2022-11-27T02:36:19;100795.16;;;11.56;100.00
55679;BME280;41573;51.446;-2.018;2022-11-27T02:38:58;100793.16;;;11.60;100.00
55679;BME280;41573;51.446;-2.018;2022-11-27T02:41:30;100777.53;;;11.53;100.00
55679;BME280;41573;51.446;-2.018;2022-11-27T02:43:59;100784.50;;;11.56;100.00
55679;BME280;41573;51.446;-2.018;2022-11-27T02:46:25;100783.56;;;11.57;100.00
55679;BME280;41573;51.446;-2.018;2022-11-27T02:48:56;100785.25;;;11.58;100.00
55679;BME280;41573;51.446;-2.018;2022-11-27T02:51:26;100771.06;;;11.58;100.00
55679;BME280;41573;51.446;-2.018;2022-11-27T02:53:56;100765.94;;;11.54;100.00
55679;BME280;41573;51.446;-2.018;2022-11-27T02:56:26;100763.06;;;11.58;100.00
55679;BME280;41573;51.446;-2.018;2022-11-27T02:58:53;100772.59;;;11.62;100.00
55679;BME280;41573;51.446;-2.018;2022-11-27T03:01:21;100760.59;;;11.54;100.00
55679;BME280;41573;51.446;-2.018;2022-11-27T03:03:51;100762.22;;;11.57;100.00
55679;BME280;41573;51.446;-2.018;2022-11-27T03:06:18;100750.47;;;11.60;100.00
55679;BME280;41573;51.446;-2.018;2022-11-27T03:09:02;100744.00;;;11.64;100.00
55679;BME280;41573;51.446;-2.018;2022-11-27T03:11:29;100735.25;;;11.62;100.00
55679;BME280;41573;51.446;-2.018;2022-11-27T03:13:58;100728.69;;;11.67;100.00
55679;BME280;41573;51.446;-2.018;2022-11-27T03:16:37;100723.53;;;11.64;100.00
55679;BME280;41573;51.446;-2.018;2022-11-27T03:19:29;100710.94;;;11.66;100.00
55679;BME280;41573;51.446;-2.018;2022-11-27T03:22:01;100704.56;;;11.69;100.00
55679;BME280;41573;51.446;-2.018;2022-11-27T03:24:28;100702.31;;;11.63;100.00
55679;BME280;41573;51.446;-2.018;2022-11-27T03:26:56;100701.13;;;11.67;100.00
55679;BME280;41573;51.446;-2.018;2022-11-27T03:29:33;100694.09;;;11.66;100.00
55679;BME280;41573;51.446;-2.018;2022-11-27T03:32:00;100699.03;;;11.72;100.00
55679;BME280;41573;51.446;-2.018;2022-11-27T03:34:26;100687.03;;;11.65;100.00
55679;BME280;41573;51.446;-2.018;2022-11-27T03:36:52;100681.41;;;11.69;100.00
55679;BME280;41573;51.446;-2.018;2022-11-27T03:39:19;100667.22;;;11.69;100.00
55679;BME280;41573;51.446;-2.018;2022-11-27T03:58:56;100642.28;;;11.70;100.00
55679;BME280;41573;51.446;-2.018;2022-11-27T04:01:25;100650.28;;;11.70;100.00
55679;BME280;41573;51.446;-2.018;2022-11-27T04:03:51;100655.59;;;11.70;100.00
55679;BME280;41573;51.446;-2.018;2022-11-27T04:06:16;100644.56;;;11.62;100.00
55679;BME280;41573;51.446;-2.018;2022-11-27T04:08:42;100644.94;;;11.70;100.00
55679;BME280;41573;51.446;-2.018;2022-11-27T04:11:09;100647.50;;;11.71;100.00
55679;BME280;41573;51.446;-2.018;2022-11-27T04:13:35;100652.84;;;11.71;100.00
55679;BME280;41573;51.446;-2.018;2022-11-27T04:16:01;100645.78;;;11.70;100.00
55679;BME280;41573;51.446;-2.018;2022-11-27T04:18:27;100630.63;;;11.71;100.00
55679;BME280;41573;51.446;-2.018;2022-11-27T04:20:52;100637.88;;;11.69;100.00
55679;BME280;41573;51.446;-2.018;2022-11-27T04:23:18;100628.72;;;11.73;100.00
55679;BME280;41573;51.446;-2.018;2022-11-27T04:25:43;100634.06;;;11.73;100.00
55679;BME280;41573;51.446;-2.018;2022-11-27T04:28:09;100643.22;;;11.69;100.00
55679;BME280;41573;51.446;-2.018;2022-11-27T04:30:34;100652.06;;;11.69;100.00
55679;BME280;41573;51.446;-2.018;2022-11-27T04:33:00;100652.75;;;11.73;100.00
55679;BME280;41573;51.446;-2.018;2022-11-27T04:35:25;100635.78;;;11.74;100.00
55679;BME280;41573;51.446;-2.018;2022-11-27T04:37:51;100634.91;;;11.73;100.00
55679;BME280;41573;51.446;-2.018;2022-11-27T04:40:17;100623.19;;;11.76;100.00
55679;BME280;41573;51.446;-2.018;2022-11-27T04:42:42;100619.00;;;11.72;100.00
55679;BME280;41573;51.446;-2.018;2022-11-27T04:45:08;100627.22;;;11.69;100.00
55679;BME280;41573;51.446;-2.018;2022-11-27T04:47:33;100635.94;;;11.71;100.00
55679;BME280;41573;51.446;-2.018;2022-11-27T04:49:59;100643.63;;;11.63;100.00
55679;BME280;41573;51.446;-2.018;2022-11-27T04:52:24;100643.63;;;11.63;100.00
55679;BME280;41573;51.446;-2.018;2022-11-27T04:54:49;100646.19;;;11.64;100.00
55679;BME280;41573;51.446;-2.018;2022-11-27T04:57:15;100667.53;;;11.64;100.00
55679;BME280;41573;51.446;-2.018;2022-11-27T04:59:40;100654.09;;;11.66;100.00
55679;BME280;41573;51.446;-2.018;2022-11-27T05:02:06;100674.56;;;11.65;100.00
55679;BME280;41573;51.446;-2.018;2022-11-27T05:04:31;100671.03;;;11.65;100.00
55679;BME280;41573;51.446;-2.018;2022-11-27T05:06:56;100641.91;;;11.62;100.00
55679;BME280;41573;51.446;-2.018;2022-11-27T05:09:22;100638.06;;;11.66;100.00
55679;BME280;41573;51.446;-2.018;2022-11-27T05:11:47;100648.75;;;11.66;100.00
55679;BME280;41573;51.446;-2.018;2022-11-27T05:14:13;100669.31;;;11.64;100.00
55679;BME280;41573;51.446;-2.018;2022-11-27T05:16:50;100674.75;;;11.62;100.00
55679;BME280;41573;51.446;-2.018;2022-11-27T05:19:17;100666.84;;;11.61;100.00
55679;BME280;41573;51.446;-2.018;2022-11-27T05:21:43;100663.44;;;11.59;100.00
55679;BME280;41573;51.446;-2.018;2022-11-27T05:24:10;100667.78;;;11.60;100.00
55679;BME280;41573;51.446;-2.018;2022-11-27T05:26:37;100668.78;;;11.59;100.00
55679;BME280;41573;51.446;-2.018;2022-11-27T05:29:03;100660.19;;;11.53;100.00
55679;BME280;41573;51.446;-2.018;2022-11-27T05:31:28;100646.09;;;11.51;100.00
55679;BME280;41573;51.446;-2.018;2022-11-27T05:33:54;100621.31;;;11.49;100.00
55679;BME280;41573;51.446;-2.018;2022-11-27T05:36:19;100615.25;;;11.47;100.00
55679;BME280;41573;51.446;-2.018;2022-11-27T05:38:45;100609.91;;;11.47;100.00
55679;BME280;41573;51.446;-2.018;2022-11-27T05:41:10;100605.72;;;11.43;100.00
55679;BME280;41573;51.446;-2.018;2022-11-27T05:43:35;100588.22;;;11.39;100.00
55679;BME280;41573;51.446;-2.018;2022-11-27T05:46:09;100637.03;;;11.39;100.00
55679;BME280;41573;51.446;-2.018;2022-11-27T05:48:36;100639.16;;;11.34;100.00
55679;BME280;41573;51.446;-2.018;2022-11-27T05:51:02;100642.00;;;11.31;100.00
55679;BME280;41573;51.446;-2.018;2022-11-27T05:53:28;100632.56;;;11.26;100.00
55679;BME280;41573;51.446;-2.018;2022-11-27T05:55:53;100620.78;;;11.30;100.00
55679;BME280;41573;51.446;-2.018;2022-11-27T05:58:19;100602.19;;;11.28;100.00
55679;BME280;41573;51.446;-2.018;2022-11-27T06:00:45;100596.22;;;11.25;100.00
55679;BME280;41573;51.446;-2.018;2022-11-27T06:03:10;100581.75;;;11.29;100.00
55679;BME280;41573;51.446;-2.018;2022-11-27T06:05:40;100584.97;;;11.34;100.00
55679;BME280;41573;51.446;-2.018;2022-11-27T06:08:05;100577.94;;;11.33;100.00
55679;BME280;41573;51.446;-2.018;2022-11-27T06:10:32;100589.66;;;11.30;100.00
55679;BME280;41573;51.446;-2.018;2022-11-27T06:12:57;100608.41;;;11.29;100.00
55679;BME280;41573;51.446;-2.018;2022-11-27T06:15:23;100612.22;;;11.25;100.00
55679;BME280;41573;51.446;-2.018;2022-11-27T06:17:48;100608.13;;;11.19;100.00
55679;BME280;41573;51.446;-2.018;2022-11-27T06:20:14;100604.69;;;11.17;100.00
55679;BME280;41573;51.446;-2.018;2022-11-27T06:22:39;100597.56;;;11.17;100.00
55679;BME280;41573;51.446;-2.018;2022-11-27T06:25:05;100609.38;;;11.13;100.00
55679;BME280;41573;51.446;-2.018;2022-11-27T06:27:34;100589.94;;;11.11;100.00
55679;BME280;41573;51.446;-2.018;2022-11-27T06:30:01;100600.16;;;11.04;100.00
55679;BME280;41573;51.446;-2.018;2022-11-27T06:32:26;100610.81;;;11.04;100.00
55679;BME280;41573;51.446;-2.018;2022-11-27T06:34:52;100601.38;;;10.99;100.00
55679;BME280;41573;51.446;-2.018;2022-11-27T06:37:17;100602.91;;;11.03;100.00
55679;BME280;41573;51.446;-2.018;2022-11-27T06:39:42;100595.38;;;10.95;100.00
55679;BME280;41573;51.446;-2.018;2022-11-27T06:42:08;100601.53;;;10.96;100.00
55679;BME280;41573;51.446;-2.018;2022-11-27T06:44:33;100589.19;;;10.95;100.00
55679;BME280;41573;51.446;-2.018;2022-11-27T06:46:59;100587.47;;;10.94;100.00
55679;BME280;41573;51.446;-2.018;2022-11-27T06:49:24;100595.66;;;10.91;100.00
55679;BME280;41573;51.446;-2.018;2022-11-27T06:51:50;100594.03;;;10.88;100.00
55679;BME280;41573;51.446;-2.018;2022-11-27T06:54:15;100577.41;;;10.84;100.00
55679;BME280;41573;51.446;-2.018;2022-11-27T06:56:41;100581.75;;;10.85;100.00
55679;BME280;41573;51.446;-2.018;2022-11-27T06:59:06;100577.56;;;10.81;100.00
55679;BME280;41573;51.446;-2.018;2022-11-27T07:01:31;100576.03;;;10.77;100.00
55679;BME280;41573;51.446;-2.018;2022-11-27T07:03:58;100583.47;;;10.72;100.00
55679;BME280;41573;51.446;-2.018;2022-11-27T07:06:25;100582.53;;;10.73;100.00
55679;BME280;41573;51.446;-2.018;2022-11-27T07:08:52;100574.69;;;10.70;100.00
55679;BME280;41573;51.446;-2.018;2022-11-27T07:11:20;100573.84;;;10.69;100.00
55679;BME280;41573;51.446;-2.018;2022-11-27T07:13:47;100575.06;;;10.64;100.00
55679;BME280;41573;51.446;-2.018;2022-11-27T07:16:13;100570.34;;;10.69;100.00
55679;BME280;41573;51.446;-2.018;2022-11-27T07:18:41;100569.75;;;10.64;100.00
55679;BME280;41573;51.446;-2.018;2022-11-27T07:21:07;100569.94;;;10.61;100.00
55679;BME280;41573;51.446;-2.018;2022-11-27T07:23:34;100558.50;;;10.59;100.00
55679;BME280;41573;51.446;-2.018;2022-11-27T07:26:05;100551.59;;;10.56;100.00
55679;BME280;41573;51.446;-2.018;2022-11-27T07:28:30;100564.81;;;10.58;100.00
55679;BME280;41573;51.446;-2.018;2022-11-27T07:30:57;100563.47;;;10.50;100.00
55679;BME280;41573;51.446;-2.018;2022-11-27T07:33:23;100580.38;;;10.49;100.00
55679;BME280;41573;51.446;-2.018;2022-11-27T07:35:49;100590.34;;;10.46;100.00
55679;BME280;41573;51.446;-2.018;2022-11-27T07:38:14;100580.81;;;10.42;100.00
55679;BME280;41573;51.446;-2.018;2022-11-27T07:40:40;100575.44;;;10.43;100.00
55679;BME280;41573;51.446;-2.018;2022-11-27T07:43:05;100568.56;;;10.39;100.00
55679;BME280;41573;51.446;-2.018;2022-11-27T07:45:31;100560.75;;;10.36;100.00
55679;BME280;41573;51.446;-2.018;2022-11-27T07:47:56;100578.34;;;10.39;100.00
55679;BME280;41573;51.446;-2.018;2022-11-27T07:50:22;100585.50;;;10.38;100.00
55679;BME280;41573;51.446;-2.018;2022-11-27T07:52:47;100577.59;;;10.37;100.00
55679;BME280;41573;51.446;-2.018;2022-11-27T07:55:13;100562.66;;;10.34;100.00
55679;BME280;41573;51.446;-2.018;2022-11-27T07:57:38;100566.31;;;10.31;100.00
55679;BME280;41573;51.446;-2.018;2022-11-27T08:00:04;100563.00;;;10.28;100.00
55679;BME280;41573;51.446;-2.018;2022-11-27T08:02:30;100564.88;;;10.26;100.00
55679;BME280;41573;51.446;-2.018;2022-11-27T08:04:55;100561.47;;;10.24;100.00
55679;BME280;41573;51.446;-2.018;2022-11-27T08:07:26;100558.91;;;10.22;100.00
55679;BME280;41573;51.446;-2.018;2022-11-27T08:09:52;100559.00;;;10.21;100.00
55679;BME280;41573;51.446;-2.018;2022-11-27T08:12:17;100577.78;;;10.17;100.00
55679;BME280;41573;51.446;-2.018;2022-11-27T08:14:43;100580.53;;;10.16;100.00
55679;BME280;41573;51.446;-2.018;2022-11-27T08:17:11;100587.47;;;10.18;100.00
55679;BME280;41573;51.446;-2.018;2022-11-27T08:19:37;100576.94;;;10.17;100.00
55679;BME280;41573;51.446;-2.018;2022-11-27T08:22:02;100585.00;;;10.15;100.00
55679;BME280;41573;51.446;-2.018;2022-11-27T08:24:27;100597.28;;;10.18;100.00
55679;BME280;41573;51.446;-2.018;2022-11-27T08:26:53;100599.84;;;10.20;100.00
55679;BME280;41573;51.446;-2.018;2022-11-27T08:29:18;100595.66;;;10.15;100.00
55679;BME280;41573;51.446;-2.018;2022-11-27T08:31:44;100600.22;;;10.13;100.00
55679;BME280;41573;51.446;-2.018;2022-11-27T08:34:09;100588.78;;;10.11;100.00
55679;BME280;41573;51.446;-2.018;2022-11-27T08:36:34;100593.19;;;10.12;100.00
55679;BME280;41573;51.446;-2.018;2022-11-27T08:39:00;100576.28;;;10.13;100.00
55679;BME280;41573;51.446;-2.018;2022-11-27T08:41:25;100571.78;;;10.14;100.00
55679;BME280;41573;51.446;-2.018;2022-11-27T08:43:50;100557.66;;;10.13;100.00
55679;BME280;41573;51.446;-2.018;2022-11-27T08:46:16;100560.13;;;10.16;100.00
55679;BME280;41573;51.446;-2.018;2022-11-27T08:48:41;100556.84;;;10.11;100.00
55679;BME280;41573;51.446;-2.018;2022-11-27T08:51:13;100563.91;;;10.12;100.00
55679;BME280;41573;51.446;-2.018;2022-11-27T08:53:39;100567.31;;;10.14;100.00
55679;BME280;41573;51.446;-2.018;2022-11-27T08:56:11;100562.97;;;10.13;100.00
55679;BME280;41573;51.446;-2.018;2022-11-27T08:58:38;100553.16;;;10.14;100.00
55679;BME280;41573;51.446;-2.018;2022-11-27T09:01:18;100556.56;;;10.16;100.00
55679;BME280;41573;51.446;-2.018;2022-11-27T09:03:43;100551.25;;;10.16;100.00
55679;BME280;41573;51.446;-2.018;2022-11-27T09:06:11;100547.75;;;10.15;100.00
55679;BME280;41573;51.446;-2.018;2022-11-27T09:08:38;100556.66;;;10.14;100.00
55679;BME280;41573;51.446;-2.018;2022-11-27T09:11:04;100557.00;;;10.24;100.00
55679;BME280;41573;51.446;-2.018;2022-11-27T09:13:30;100541.97;;;10.23;100.00
55679;BME280;41573;51.446;-2.018;2022-11-27T09:15:56;100539.38;;;10.22;100.00
55679;BME280;41573;51.446;-2.018;2022-11-27T09:18:22;100556.72;;;10.29;100.00
55679;BME280;41573;51.446;-2.018;2022-11-27T09:20:59;100566.78;;;10.24;100.00
55679;BME280;41573;51.446;-2.018;2022-11-27T09:23:26;100562.31;;;10.24;100.00
55679;BME280;41573;51.446;-2.018;2022-11-27T09:25:51;100555.16;;;10.25;100.00
55679;BME280;41573;51.446;-2.018;2022-11-27T09:28:17;100542.06;;;10.22;100.00
55679;BME280;41573;51.446;-2.018;2022-11-27T09:30:42;100532.75;;;10.29;100.00
55679;BME280;41573;51.446;-2.018;2022-11-27T09:33:08;100554.03;;;10.29;100.00
55679;BME280;41573;51.446;-2.018;2022-11-27T09:35:36;100538.16;;;10.27;100.00
55679;BME280;41573;51.446;-2.018;2022-11-27T09:38:01;100553.53;;;10.38;100.00
55679;BME280;41573;51.446;-2.018;2022-11-27T09:40:27;100538.06;;;10.29;100.00
55679;BME280;41573;51.446;-2.018;2022-11-27T09:43:03;100538.59;;;10.35;100.00
55679;BME280;41573;51.446;-2.018;2022-11-27T09:45:37;100531.31;;;10.39;100.00
55679;BME280;41573;51.446;-2.018;2022-11-27T09:48:09;100513.72;;;10.37;100.00
55679;BME280;41573;51.446;-2.018;2022-11-27T09:50:40;100510.00;;;10.39;100.00
55679;BME280;41573;51.446;-2.018;2022-11-27T09:53:22;100507.91;;;10.44;100.00
55679;BME280;41573;51.446;-2.018;2022-11-27T09:55:53;100514.94;;;10.45;100.00
55679;BME280;41573;51.446;-2.018;2022-11-27T09:58:30;100529.69;;;10.51;100.00
55679;BME280;41573;51.446;-2.018;2022-11-27T10:00:59;100529.50;;;10.54;100.00
55679;BME280;41573;51.446;-2.018;2022-11-27T10:03:26;100533.03;;;10.55;100.00
55679;BME280;41573;51.446;-2.018;2022-11-27T10:08:52;100530.00;;;10.61;100.00
55679;BME280;41573;51.446;-2.018;2022-11-27T10:25:19;100530.78;;;10.92;100.00
55679;BME280;41573;51.446;-2.018;2022-11-27T10:30:38;100530.19;;;11.01;100.00
55679;BME280;41573;51.446;-2.018;2022-11-27T10:33:16;100529.03;;;11.05;100.00
55679;BME280;41573;51.446;-2.018;2022-11-27T10:35:44;100522.09;;;11.02;100.00
55679;BME280;41573;51.446;-2.018;2022-11-27T10:38:37;100525.81;;;11.14;100.00
55679;BME280;41573;51.446;-2.018;2022-11-27T10:43:38;100521.22;;;11.16;100.00
55679;BME280;41573;51.446;-2.018;2022-11-27T10:46:18;100518.91;;;11.25;100.00
55679;BME280;41573;51.446;-2.018;2022-11-27T10:48:45;100518.16;;;11.23;100.00
55679;BME280;41573;51.446;-2.018;2022-11-27T10:51:19;100516.25;;;11.25;100.00
55679;BME280;41573;51.446;-2.018;2022-11-27T10:53:49;100508.25;;;11.25;100.00
55679;BME280;41573;51.446;-2.018;2022-11-27T10:56:39;100503.78;;;11.25;100.00
55679;BME280;41573;51.446;-2.018;2022-11-27T10:59:12;100503.03;;;11.23;100.00
55679;BME280;41573;51.446;-2.018;2022-11-27T11:01:45;100484.47;;;11.21;100.00
55679;BME280;41573;51.446;-2.018;2022-11-27T11:04:12;100487.03;;;11.23;100.00
55679;BME280;41573;51.446;-2.018;2022-11-27T11:06:43;100489.81;;;11.21;100.00
55679;BME280;41573;51.446;-2.018;2022-11-27T11:09:23;100494.25;;;11.21;100.00
55679;BME280;41573;51.446;-2.018;2022-11-27T11:11:50;100480.09;;;11.20;100.00
55679;BME280;41573;51.446;-2.018;2022-11-27T11:14:22;100476.56;;;11.20;100.00
55679;BME280;41573;51.446;-2.018;2022-11-27T11:16:49;100466.97;;;11.17;100.00
55679;BME280;41573;51.446;-2.018;2022-11-27T11:19:31;100467.50;;;11.23;100.00
55679;BME280;41573;51.446;-2.018;2022-11-27T11:22:04;100473.69;;;11.23;100.00
55679;BME280;41573;51.446;-2.018;2022-11-27T11:24:37;100469.78;;;11.29;100.00
55679;BME280;41573;51.446;-2.018;2022-11-27T11:27:10;100479.38;;;11.31;100.00
55679;BME280;41573;51.446;-2.018;2022-11-27T11:29:45;100465.19;;;11.31;100.00
55679;BME280;41573;51.446;-2.018;2022-11-27T11:34:46;100456.78;;;11.37;100.00
55679;BME280;41573;51.446;-2.018;2022-11-27T11:37:28;100461.38;;;11.35;100.00
55679;BME280;41573;51.446;-2.018;2022-11-27T11:39:56;100468.78;;;11.44;100.00
55679;BME280;41573;51.446;-2.018;2022-11-27T11:42:26;100460.56;;;11.47;100.00
55679;BME280;41573;51.446;-2.018;2022-11-27T11:45:03;100455.25;;;11.47;100.00
55679;BME280;41573;51.446;-2.018;2022-11-27T11:47:29;100434.00;;;11.46;100.00
55679;BME280;41573;51.446;-2.018;2022-11-27T11:49:55;100443.16;;;11.42;100.00
55679;BME280;41573;51.446;-2.018;2022-11-27T11:52:48;100429.53;;;11.46;100.00
55679;BME280;41573;51.446;-2.018;2022-11-27T11:55:26;100423.34;;;11.46;100.00
55679;BME280;41573;51.446;-2.018;2022-11-27T12:00:47;100413.31;;;11.49;100.00
55679;BME280;41573;51.446;-2.018;2022-11-27T12:06:27;100405.88;;;11.54;100.00
55679;BME280;41573;51.446;-2.018;2022-11-27T12:09:12;100398.59;;;11.56;100.00
55679;BME280;41573;51.446;-2.018;2022-11-27T12:28:33;100369.19;;;11.71;100.00
55679;BME280;41573;51.446;-2.018;2022-11-27T12:34:26;100361.06;;;11.60;100.00
55679;BME280;41573;51.446;-2.018;2022-11-27T12:44:54;100351.59;;;11.55;100.00
55679;BME280;41573;51.446;-2.018;2022-11-27T12:47:38;100345.06;;;11.60;100.00
55679;BME280;41573;51.446;-2.018;2022-11-27T12:52:38;100362.44;;;11.52;100.00
55679;BME280;41573;51.446;-2.018;2022-11-27T12:55:06;100349.53;;;11.46;100.00
55679;BME280;41573;51.446;-2.018;2022-11-27T12:57:43;100352.75;;;11.51;100.00
55679;BME280;41573;51.446;-2.018;2022-11-27T13:02:41;100338.66;;;11.49;100.00
55679;BME280;41573;51.446;-2.018;2022-11-27T13:05:18;100329.91;;;11.47;100.00
55679;BME280;41573;51.446;-2.018;2022-11-27T13:13:06;100312.81;;;11.37;100.00
55679;BME280;41573;51.446;-2.018;2022-11-27T13:18:34;100301.53;;;11.46;100.00
55679;BME280;41573;51.446;-2.018;2022-11-27T13:21:08;100299.81;;;11.45;100.00
55679;BME280;41573;51.446;-2.018;2022-11-27T13:23:36;100295.53;;;11.43;100.00
55679;BME280;41573;51.446;-2.018;2022-11-27T13:26:10;100299.28;;;11.40;100.00
55679;BME280;41573;51.446;-2.018;2022-11-27T13:28:46;100301.41;;;11.35;100.00
55679;BME280;41573;51.446;-2.018;2022-11-27T13:31:21;100294.25;;;11.35;100.00
55679;BME280;41573;51.446;-2.018;2022-11-27T13:33:50;100300.84;;;11.30;100.00
55679;BME280;41573;51.446;-2.018;2022-11-27T13:36:25;100290.00;;;11.33;100.00
55679;BME280;41573;51.446;-2.018;2022-11-27T13:38:56;100287.53;;;11.30;100.00
55679;BME280;41573;51.446;-2.018;2022-11-27T13:41:37;100283.91;;;11.31;100.00
55679;BME280;41573;51.446;-2.018;2022-11-27T13:44:25;100271.63;;;11.28;100.00
55679;BME280;41573;51.446;-2.018;2022-11-27T13:46:55;100263.97;;;11.24;100.00
55679;BME280;41573;51.446;-2.018;2022-11-27T13:49:31;100271.63;;;11.28;100.00
55679;BME280;41573;51.446;-2.018;2022-11-27T13:52:18;100267.91;;;11.31;100.00
55679;BME280;41573;51.446;-2.018;2022-11-27T13:54:58;100257.13;;;11.19;100.00
55679;BME280;41573;51.446;-2.018;2022-11-27T13:57:26;100253.63;;;11.19;100.00
55679;BME280;41573;51.446;-2.018;2022-11-27T14:02:22;100244.56;;;11.21;100.00
55679;BME280;41573;51.446;-2.018;2022-11-27T14:04:49;100234.63;;;11.24;100.00
55679;BME280;41573;51.446;-2.018;2022-11-27T14:07:16;100220.97;;;11.15;100.00
55679;BME280;41573;51.446;-2.018;2022-11-27T14:09:48;100212.34;;;11.12;100.00
55679;BME280;41573;51.446;-2.018;2022-11-27T14:12:20;100208.09;;;11.09;100.00
55679;BME280;41573;51.446;-2.018;2022-11-27T14:14:59;100202.97;;;11.06;100.00
55679;BME280;41573;51.446;-2.018;2022-11-27T14:17:26;100199.75;;;11.01;100.00
55679;BME280;41573;51.446;-2.018;2022-11-27T14:20:01;100195.47;;;10.98;100.00
55679;BME280;41573;51.446;-2.018;2022-11-27T14:22:52;100208.06;;;10.96;100.00
55679;BME280;41573;51.446;-2.018;2022-11-27T14:25:21;100208.47;;;10.90;100.00